createdAt,value
2022-08-04T00:00:17.690Z,100188.75
2022-08-04T00:02:58.109Z,100193.16
2022-08-04T00:05:36.946Z,100180.06
2022-08-04T00:08:17.356Z,100173.88
2022-08-04T00:10:51.283Z,100170.81
2022-08-04T00:13:24.762Z,100176.78
2022-08-04T00:15:54.729Z,100177.69
2022-08-04T00:18:27.822Z,100182.44
2022-08-04T00:21:01.637Z,100180.34
2022-08-04T00:24:10.643Z,100183.13
2022-08-04T00:26:21.978Z,100168.84
2022-08-04T00:28:50.340Z,100180.16
2022-08-04T00:31:19.362Z,100180.81
2022-08-04T00:34:07.258Z,100164.06
2022-08-04T00:36:36.704Z,100181.31
2022-08-04T00:39:04.761Z,100179.38
2022-08-04T00:41:56.280Z,100183.22
2022-08-04T00:44:37.787Z,100183.94
2022-08-04T00:47:20.210Z,100175.66
2022-08-04T00:50:05.424Z,100181.84
2022-08-04T00:52:43.725Z,100178.41
2022-08-04T00:55:28.311Z,100177.53
2022-08-04T00:58:16.487Z,100161.16
2022-08-04T01:00:55.855Z,100173.25
2022-08-04T01:03:34.521Z,100176.59
2022-08-04T01:06:10.473Z,100172.41
2022-08-04T01:08:51.770Z,100175.19
2022-08-04T01:11:32.369Z,100177.38
2022-08-04T01:14:35.462Z,100172.06
2022-08-04T01:17:14.910Z,100182.06
2022-08-04T01:19:55.578Z,100170.84
2022-08-04T01:22:59.017Z,100175.09
2022-08-04T01:25:51.935Z,100167.47
2022-08-04T01:28:31.454Z,100172.78
2022-08-04T01:31:14.491Z,100165.00
2022-08-04T01:34:03.589Z,100177.28
2022-08-04T01:36:35.475Z,100169.31
2022-08-04T01:39:25.872Z,100168.84
2022-08-04T01:41:57.762Z,100158.44
2022-08-04T01:44:29.537Z,100143.94
2022-08-04T01:47:01.647Z,100162.91
2022-08-04T01:49:32.127Z,100168.75
2022-08-04T01:52:11.854Z,100165.19
2022-08-04T01:54:42.966Z,100154.88
2022-08-04T01:57:37.591Z,100159.13
2022-08-04T02:00:01.303Z,100156.81
2022-08-04T02:02:31.107Z,100162.66
2022-08-04T02:04:59.213Z,100173.94
2022-08-04T02:07:41.417Z,100163.78
2022-08-04T02:10:19.569Z,100158.38
2022-08-04T02:12:57.238Z,100160.88
2022-08-04T02:15:30.124Z,100152.34
2022-08-04T02:18:05.411Z,100159.53
2022-08-04T02:20:36.067Z,100159.03
2022-08-04T02:23:07.037Z,100159.34
2022-08-04T02:25:40.505Z,100153.91
2022-08-04T02:28:23.006Z,100155.34
2022-08-04T02:30:58.964Z,100162.19
2022-08-04T02:33:37.074Z,100157.84
2022-08-04T02:36:06.568Z,100165.28
2022-08-04T02:38:48.669Z,100162.34
2022-08-04T02:41:18.252Z,100167.91
2022-08-04T02:43:52.072Z,100150.94
2022-08-04T02:46:22.391Z,100152.03
2022-08-04T02:48:53.959Z,100152.31
2022-08-04T02:51:25.760Z,100153.53
2022-08-04T02:53:55.966Z,100147.06
2022-08-04T02:56:25.074Z,100145.41
2022-08-04T02:58:55.081Z,100147.56
2022-08-04T03:01:24.206Z,100131.41
2022-08-04T03:04:24.136Z,100139.38
2022-08-04T03:07:25.153Z,100139.91
2022-08-04T03:10:31.422Z,100147.88
2022-08-04T03:13:26.340Z,100149.69
2022-08-04T03:16:33.484Z,100162.94
2022-08-04T03:19:34.860Z,100156.59
2022-08-04T03:23:11.485Z,100147.75
2022-08-04T03:26:10.568Z,100153.75
2022-08-04T03:29:35.151Z,100151.06
2022-08-04T03:32:34.374Z,100145.13
2022-08-04T03:35:22.774Z,100157.78
2022-08-04T03:38:18.226Z,100159.34
2022-08-04T03:41:05.274Z,100153.06
2022-08-04T03:44:12.704Z,100162.31
2022-08-04T03:47:13.463Z,100166.44
2022-08-04T03:50:14.631Z,100162.91
2022-08-04T03:53:09.546Z,100159.47
2022-08-04T03:56:16.836Z,100167.81
2022-08-04T03:58:54.620Z,100167.78
2022-08-04T04:02:02.905Z,100165.25
2022-08-04T04:04:48.121Z,100167.09
2022-08-04T04:08:13.798Z,100174.06
2022-08-04T04:11:31.252Z,100164.13
2022-08-04T04:14:16.284Z,100171.19
2022-08-04T04:16:59.853Z,100160.69
2022-08-04T04:19:52.501Z,100165.38
2022-08-04T04:22:55.153Z,100157.38
2022-08-04T04:25:36.871Z,100169.38
2022-08-04T04:28:46.990Z,100159.06
2022-08-04T04:31:48.653Z,100162.16
2022-08-04T04:34:25.834Z,100173.41
2022-08-04T04:37:10.720Z,100177.38
2022-08-04T04:39:49.852Z,100163.72
2022-08-04T04:42:33.446Z,100164.28
2022-08-04T04:45:16.227Z,100164.22
2022-08-04T04:48:08.461Z,100171.47
2022-08-04T04:50:52.718Z,100168.25
2022-08-04T04:53:28.577Z,100173.47
2022-08-04T04:56:04.563Z,100173.56
2022-08-04T04:58:35.256Z,100169.78
2022-08-04T05:01:25.056Z,100171.84
2022-08-04T05:04:13.149Z,100174.59
2022-08-04T05:07:04.023Z,100172.00
2022-08-04T05:09:46.129Z,100158.66
2022-08-04T05:14:33.078Z,100177.53
2022-08-04T05:15:37.353Z,100178.47
2022-08-04T05:18:10.286Z,100177.00
2022-08-04T05:20:42.526Z,100173.50
2022-08-04T05:23:14.580Z,100181.03
2022-08-04T05:25:50.062Z,100166.25
2022-08-04T05:28:30.781Z,100185.38
2022-08-04T05:31:02.381Z,100184.91
2022-08-04T05:33:35.618Z,100183.28
2022-08-04T05:36:20.823Z,100166.97
2022-08-04T05:38:59.845Z,100179.81
2022-08-04T05:41:32.259Z,100172.09
2022-08-04T05:44:13.363Z,100174.66
2022-08-04T05:46:42.344Z,100161.88
2022-08-04T05:49:16.609Z,100169.28
2022-08-04T05:51:50.486Z,100179.03
2022-08-04T05:54:19.563Z,100166.81
2022-08-04T05:56:48.679Z,100168.09
2022-08-04T05:59:18.061Z,100182.69
2022-08-04T06:01:55.614Z,100177.31
2022-08-04T06:04:32.172Z,100172.44
2022-08-04T06:07:00.566Z,100177.44
2022-08-04T06:09:28.798Z,100174.88
2022-08-04T06:12:03.826Z,100174.44
2022-08-04T06:14:36.907Z,100174.06
2022-08-04T06:18:33.856Z,100177.13
2022-08-04T06:20:19.305Z,100165.41
2022-08-04T06:22:53.420Z,100169.78
2022-08-04T06:25:24.956Z,100165.97
2022-08-04T06:27:54.740Z,100174.25
2022-08-04T06:30:27.506Z,100172.00
2022-08-04T06:33:04.048Z,100145.50
2022-08-04T06:35:35.149Z,100164.75
2022-08-04T06:38:04.203Z,100162.84
2022-08-04T06:40:34.552Z,100172.00
2022-08-04T06:43:04.980Z,100161.19
2022-08-04T06:45:35.426Z,100170.97
2022-08-04T06:48:05.227Z,100163.25
2022-08-04T06:51:30.649Z,100167.72
2022-08-04T06:53:25.591Z,100173.28
2022-08-04T06:55:54.894Z,100177.06
2022-08-04T06:58:24.155Z,100128.63
2022-08-04T07:00:52.923Z,100151.34
2022-08-04T07:03:21.813Z,100161.19
2022-08-04T07:05:52.644Z,100167.16
2022-08-04T07:08:21.684Z,100174.47
2022-08-04T07:10:50.503Z,100165.09
2022-08-04T07:13:19.845Z,100155.09
2022-08-04T07:15:49.618Z,100167.72
2022-08-04T07:18:17.801Z,100172.28
2022-08-04T07:20:46.951Z,100157.91
2022-08-04T07:23:19.712Z,100159.91
2022-08-04T07:25:59.801Z,100157.94
2022-08-04T07:28:41.678Z,100159.97
2022-08-04T07:31:32.002Z,100151.53
2022-08-04T07:34:21.450Z,100153.03
2022-08-04T07:36:50.239Z,100148.75
2022-08-04T07:39:26.463Z,100157.50
2022-08-04T07:41:56.539Z,100162.78
2022-08-04T07:44:25.210Z,100156.03
2022-08-04T07:46:53.370Z,100155.50
2022-08-04T07:49:55.001Z,100154.03
2022-08-04T07:52:10.244Z,100157.22
2022-08-04T07:54:40.567Z,100144.56
2022-08-04T07:57:08.518Z,100146.06
2022-08-04T07:59:50.139Z,100145.22
2022-08-04T08:02:22.191Z,100148.50
2022-08-04T08:04:50.415Z,100142.56
2022-08-04T08:07:20.399Z,100136.72
2022-08-04T08:09:50.071Z,100137.88
2022-08-04T08:12:37.698Z,100139.13
2022-08-04T08:15:16.161Z,100140.75
2022-08-04T08:17:58.836Z,100137.81
2022-08-04T08:20:30.851Z,100137.00
2022-08-04T08:22:59.957Z,100150.63
2022-08-04T08:25:31.262Z,100139.25
2022-08-04T08:27:59.419Z,100139.94
2022-08-04T08:30:31.443Z,100134.69
2022-08-04T08:33:02.451Z,100141.75
2022-08-04T08:35:46.869Z,100132.66
2022-08-04T08:38:29.934Z,100120.78
2022-08-04T08:41:17.804Z,100138.09
2022-08-04T08:44:06.855Z,100127.41
2022-08-04T08:47:00.214Z,100129.59
2022-08-04T08:50:04.372Z,100122.06
2022-08-04T08:53:18.276Z,100126.50
2022-08-04T08:56:03.361Z,100119.91
2022-08-04T08:58:45.705Z,100111.03
2022-08-04T09:01:28.445Z,100115.53
2022-08-04T09:04:32.216Z,100111.28
2022-08-04T09:07:16.435Z,100125.94
2022-08-04T09:09:54.504Z,100117.47
2022-08-04T09:12:31.238Z,100115.56
2022-08-04T09:15:06.562Z,100114.34
2022-08-04T09:17:42.093Z,100108.38
2022-08-04T09:20:17.527Z,100107.84
2022-08-04T09:22:52.877Z,100109.31
2022-08-04T09:25:26.044Z,100108.66
2022-08-04T09:27:55.961Z,100112.19
2022-08-04T09:30:37.828Z,100112.69
2022-08-04T09:33:18.072Z,100110.44
2022-08-04T09:35:58.292Z,100099.03
2022-08-04T09:38:36.049Z,100108.34
2022-08-04T09:41:35.889Z,100101.66
2022-08-04T09:44:48.767Z,100107.69
2022-08-04T09:47:13.966Z,100103.56
2022-08-04T09:49:47.205Z,100103.25
2022-08-04T09:52:27.937Z,100099.53
2022-08-04T09:55:06.537Z,100097.66
2022-08-04T09:57:46.817Z,100100.69
2022-08-04T10:00:17.741Z,100093.44
2022-08-04T10:02:53.326Z,100092.69
2022-08-04T10:05:24.140Z,100084.75
2022-08-04T10:08:16.495Z,100087.22
2022-08-04T10:11:00.765Z,100085.59
2022-08-04T10:13:40.540Z,100081.72
2022-08-04T10:16:26.059Z,100088.53
2022-08-04T10:19:08.012Z,100073.97
2022-08-04T10:21:59.212Z,100080.16
2022-08-04T10:24:46.376Z,100076.03
2022-08-04T10:27:21.771Z,100084.69
2022-08-04T10:29:50.572Z,100080.09
2022-08-04T10:32:22.377Z,100080.78
2022-08-04T10:35:05.258Z,100070.97
2022-08-04T10:37:59.334Z,100062.31
2022-08-04T10:40:37.788Z,100060.97
2022-08-04T10:43:22.045Z,100062.47
2022-08-04T10:45:58.006Z,100056.84
2022-08-04T10:48:36.420Z,100061.03
2022-08-04T10:51:16.626Z,100059.56
2022-08-04T10:53:45.681Z,100056.88
2022-08-04T10:56:18.927Z,100038.19
2022-08-04T10:58:52.403Z,100044.56
2022-08-04T11:02:02.110Z,100047.72
2022-08-04T11:04:27.334Z,100037.78
2022-08-04T11:07:00.003Z,100049.84
2022-08-04T11:09:29.945Z,100043.03
2022-08-04T11:12:03.716Z,100037.47
2022-08-04T11:14:38.853Z,100038.97
2022-08-04T11:17:09.285Z,100032.28
2022-08-04T11:19:53.196Z,100035.28
2022-08-04T11:22:27.513Z,100038.63
2022-08-04T11:25:02.794Z,100036.69
2022-08-04T11:27:38.411Z,100023.91
2022-08-04T11:30:08.769Z,100038.69
2022-08-04T11:32:43.131Z,100028.66
2022-08-04T11:35:15.264Z,100027.63
2022-08-04T11:37:51.047Z,100031.84
2022-08-04T11:40:25.588Z,100023.38
2022-08-04T11:42:58.210Z,100029.50
2022-08-04T11:45:32.377Z,100021.97
2022-08-04T11:48:05.778Z,100030.13
2022-08-04T11:50:38.905Z,100035.94
2022-08-04T11:53:10.237Z,100036.13
2022-08-04T11:56:08.420Z,100037.00
2022-08-04T11:58:27.460Z,100035.91
2022-08-04T12:01:09.637Z,100032.28
2022-08-04T12:04:03.462Z,100030.53
2022-08-04T12:06:37.902Z,100022.00
2022-08-04T12:09:13.982Z,100029.00
2022-08-04T12:11:53.238Z,100014.16
2022-08-04T12:14:28.021Z,100014.75
2022-08-04T12:17:01.541Z,100007.81
2022-08-04T12:19:57.063Z,100011.47
2022-08-04T12:22:33.298Z,100004.81
2022-08-04T12:25:07.843Z,100016.22
2022-08-04T12:27:42.949Z,100010.66
2022-08-04T12:30:57.761Z,100008.22
2022-08-04T12:33:05.209Z,99999.44
2022-08-04T12:35:40.146Z,99999.94
2022-08-04T12:38:33.153Z,99998.38
2022-08-04T12:41:04.090Z,99996.72
2022-08-04T12:43:41.054Z,99995.63
2022-08-04T12:46:11.744Z,99999.78
2022-08-04T12:48:41.148Z,99987.59
2022-08-04T12:52:06.436Z,99984.66
2022-08-04T12:54:00.122Z,99978.34
2022-08-04T12:56:30.829Z,99990.50
2022-08-04T12:59:03.510Z,99983.72
2022-08-04T13:02:10.271Z,99982.63
2022-08-04T13:07:38.236Z,99963.78
2022-08-04T13:10:14.116Z,99976.69
2022-08-04T13:12:56.212Z,99976.31
2022-08-04T13:15:25.439Z,99974.72
2022-08-04T13:17:59.788Z,99963.34
2022-08-04T13:20:30.450Z,99959.81
2022-08-04T13:23:05.950Z,99971.38
2022-08-04T13:26:44.934Z,99967.78
2022-08-04T13:28:30.547Z,99960.19
2022-08-04T13:31:02.843Z,99954.00
2022-08-04T13:33:33.686Z,99961.22
2022-08-04T13:36:02.915Z,99959.91
2022-08-04T13:38:32.500Z,99954.09
2022-08-04T13:41:03.393Z,99957.53
2022-08-04T13:44:15.558Z,99949.66
2022-08-04T13:46:28.093Z,99950.19
2022-08-04T13:49:25.853Z,99940.97
2022-08-04T13:51:58.233Z,99932.16
2022-08-04T13:54:30.338Z,99923.75
2022-08-04T13:57:02.143Z,99920.22
2022-08-04T13:59:37.745Z,99919.38
2022-08-04T14:02:10.808Z,99917.97
2022-08-04T14:04:42.436Z,99921.13
2022-08-04T14:07:26.719Z,99914.78
2022-08-04T14:10:03.118Z,99914.56
2022-08-04T14:12:45.557Z,99912.72
2022-08-04T14:16:02.993Z,99901.81
2022-08-04T14:18:31.992Z,99897.25
2022-08-04T14:21:04.976Z,99891.72
2022-08-04T14:23:47.365Z,99884.72
2022-08-04T14:26:17.936Z,99892.66
2022-08-04T14:29:27.129Z,99878.81
2022-08-04T14:31:35.523Z,99877.13
2022-08-04T14:34:09.731Z,99864.06
2022-08-04T14:37:13.416Z,99872.38
2022-08-04T14:39:39.187Z,99866.66
2022-08-04T14:42:08.181Z,99866.94
2022-08-04T14:44:55.230Z,99859.50
2022-08-04T14:47:52.534Z,99857.75
2022-08-04T14:50:22.804Z,99850.34
2022-08-04T14:52:50.893Z,99861.59
2022-08-04T14:55:21.869Z,99863.53
2022-08-04T14:58:35.899Z,99866.25
2022-08-04T15:00:38.616Z,99866.19
2022-08-04T15:03:10.508Z,99848.97
2022-08-04T15:05:59.979Z,99858.97
2022-08-04T15:08:31.741Z,99856.03
2022-08-04T15:11:03.172Z,99863.78
2022-08-04T15:13:33.166Z,99853.25
2022-08-04T15:16:07.819Z,99853.22
2022-08-04T15:18:39.320Z,99835.53
2022-08-04T15:21:08.455Z,99849.59
2022-08-04T15:23:39.703Z,99843.69
2022-08-04T15:26:13.056Z,99849.38
2022-08-04T15:28:45.777Z,99835.34
2022-08-04T15:32:06.536Z,99839.66
2022-08-04T15:34:05.445Z,99821.44
2022-08-04T15:36:39.601Z,99841.31
2022-08-04T15:39:19.384Z,99836.16
2022-08-04T15:41:57.731Z,99832.38
2022-08-04T15:44:50.253Z,99833.69
2022-08-04T15:47:18.986Z,99833.34
2022-08-04T15:50:04.361Z,99818.44
2022-08-04T15:53:12.467Z,99817.09
2022-08-04T15:55:43.022Z,99828.88
2022-08-04T15:58:13.426Z,99816.56
2022-08-04T16:01:16.797Z,99826.25
2022-08-04T16:03:53.074Z,99825.97
2022-08-04T16:06:49.845Z,99821.91
2022-08-04T16:09:45.115Z,99823.31
2022-08-04T16:12:54.587Z,99827.88
2022-08-04T16:15:42.560Z,99822.06
2022-08-04T16:18:26.421Z,99824.28
2022-08-04T16:20:57.550Z,99821.03
2022-08-04T16:24:05.796Z,99826.38
2022-08-04T16:27:00.784Z,99821.19
2022-08-04T16:29:30.629Z,99816.13
2022-08-04T16:32:12.076Z,99824.75
2022-08-04T16:34:54.824Z,99811.88
2022-08-04T16:37:26.704Z,99813.75
2022-08-04T16:40:29.825Z,99809.84
2022-08-04T16:43:08.219Z,99812.81
2022-08-04T16:45:44.378Z,99814.31
2022-08-04T16:48:13.356Z,99810.88
2022-08-04T16:50:53.366Z,99806.06
2022-08-04T16:54:03.709Z,99807.22
2022-08-04T16:56:14.237Z,99800.88
2022-08-04T16:58:53.735Z,99802.06
2022-08-04T17:01:33.018Z,99798.50
2022-08-04T17:04:05.131Z,99800.94
2022-08-04T17:06:36.304Z,99800.97
2022-08-04T17:09:07.082Z,99797.72
2022-08-04T17:11:35.094Z,99801.75
2022-08-04T17:14:06.355Z,99794.91
2022-08-04T17:16:36.376Z,99798.13
2022-08-04T17:19:06.242Z,99788.03
2022-08-04T17:21:36.702Z,99802.16
2022-08-04T17:24:16.306Z,99796.13
2022-08-04T17:26:54.297Z,99804.16
2022-08-04T17:29:42.960Z,99803.69
2022-08-04T17:32:17.177Z,99792.38
2022-08-04T17:34:48.725Z,99797.09
2022-08-04T17:37:38.813Z,99800.34
2022-08-04T17:40:11.771Z,99800.25
2022-08-04T17:42:41.337Z,99802.59
2022-08-04T17:48:00.393Z,99802.66
2022-08-04T17:50:35.662Z,99801.84
2022-08-04T17:53:11.525Z,99808.75
2022-08-04T17:55:44.614Z,99801.16
2022-08-04T17:58:21.338Z,99799.09
2022-08-04T18:03:53.404Z,99801.59
2022-08-04T18:06:23.100Z,99809.59
2022-08-04T18:08:59.255Z,99803.13
2022-08-04T18:11:53.767Z,99808.28
2022-08-04T18:14:28.833Z,99800.50
2022-08-04T18:16:58.481Z,99814.31
2022-08-04T18:19:26.446Z,99814.47
2022-08-04T18:22:01.037Z,99812.03
2022-08-04T18:24:35.934Z,99804.72
2022-08-04T18:27:21.765Z,99819.81
2022-08-04T18:30:33.256Z,99828.75
2022-08-04T18:33:10.162Z,99838.13
2022-08-04T18:36:31.219Z,99836.63
2022-08-04T18:38:24.897Z,99830.84
2022-08-04T18:40:54.691Z,99843.31
2022-08-04T18:43:28.583Z,99847.97
2022-08-04T18:46:15.005Z,99846.00
2022-08-04T18:48:52.238Z,99848.31
2022-08-04T18:51:23.614Z,99854.41
2022-08-04T18:53:54.970Z,99855.78
2022-08-04T18:56:29.810Z,99855.94
2022-08-04T18:59:00.306Z,99862.97
2022-08-04T19:01:30.049Z,99868.69
2022-08-04T19:04:33.031Z,99865.94
2022-08-04T19:07:28.860Z,99873.69
2022-08-04T19:09:53.912Z,99872.25
2022-08-04T19:12:32.798Z,99878.53
2022-08-04T19:15:08.623Z,99868.41
2022-08-04T19:17:53.642Z,99858.31
2022-08-04T19:20:27.230Z,99858.03
2022-08-04T19:26:01.613Z,99875.84
2022-08-04T19:28:34.813Z,99872.00
2022-08-04T19:31:03.949Z,99871.53
2022-08-04T19:33:55.375Z,99885.56
2022-08-04T19:36:21.259Z,99884.34
2022-08-04T19:38:57.276Z,99883.97
2022-08-04T19:41:26.604Z,99883.28
2022-08-04T19:43:55.118Z,99895.22
2022-08-04T19:46:25.015Z,99898.41
2022-08-04T19:51:44.124Z,99902.00
2022-08-04T19:54:17.045Z,99901.28
2022-08-04T19:56:52.033Z,99888.94
2022-08-04T19:59:20.221Z,99903.50
2022-08-04T20:01:51.116Z,99880.97
2022-08-04T20:04:22.780Z,99907.47
2022-08-04T20:06:53.984Z,99899.59
2022-08-04T20:09:26.708Z,99904.13
2022-08-04T20:11:56.140Z,99901.34
2022-08-04T20:14:31.399Z,99889.38
2022-08-04T20:17:01.168Z,99915.06
2022-08-04T20:19:30.289Z,99911.00
2022-08-04T20:21:59.965Z,99907.56
2022-08-04T20:24:37.524Z,99917.06
2022-08-04T20:27:11.581Z,99914.53
2022-08-04T20:29:47.435Z,99926.94
2022-08-04T20:32:17.333Z,99911.28
2022-08-04T20:34:48.009Z,99915.09
2022-08-04T20:37:17.408Z,99904.97
2022-08-04T20:39:45.435Z,99921.22
2022-08-04T20:42:26.967Z,99923.97
2022-08-04T20:44:56.092Z,99927.75
2022-08-04T20:47:26.128Z,99930.69
2022-08-04T20:49:59.010Z,99938.47
2022-08-04T20:52:33.107Z,99932.16
2022-08-04T20:55:02.491Z,99935.06
2022-08-04T20:57:48.681Z,99929.53
2022-08-04T21:00:26.412Z,99931.16
2022-08-04T21:02:58.137Z,99929.91
2022-08-04T21:05:26.515Z,99937.94
2022-08-04T21:07:59.865Z,99931.25
2022-08-04T21:10:29.020Z,99941.06
2022-08-04T21:12:57.752Z,99941.56
2022-08-04T21:15:50.695Z,99936.53
2022-08-04T21:18:14.422Z,99928.66
2022-08-04T21:20:44.985Z,99939.63
2022-08-04T21:23:17.451Z,99945.22
2022-08-04T21:25:50.005Z,99941.53
2022-08-04T21:28:20.489Z,99945.38
2022-08-04T21:30:53.182Z,99946.53
2022-08-04T21:33:23.590Z,99951.50
2022-08-04T21:38:51.522Z,99950.66
2022-08-04T21:41:24.771Z,99958.56
2022-08-04T21:43:55.671Z,99951.25
2022-08-04T21:46:23.740Z,99957.66
2022-08-04T21:48:51.740Z,99948.47
2022-08-04T21:51:59.017Z,99951.69
2022-08-04T21:54:16.895Z,99960.09
2022-08-04T21:56:51.249Z,99959.16
2022-08-04T21:59:28.583Z,99953.09
2022-08-04T22:02:01.459Z,99955.88
2022-08-04T22:04:30.672Z,99955.56
2022-08-04T22:07:02.930Z,99944.47
2022-08-04T22:09:38.513Z,99950.22
2022-08-04T22:12:11.903Z,99954.19
2022-08-04T22:14:40.939Z,99962.56
2022-08-04T22:19:56.823Z,99964.38
2022-08-04T22:22:30.189Z,99964.22
2022-08-04T22:25:12.419Z,99966.78
2022-08-04T22:28:02.718Z,99965.97
2022-08-04T22:30:36.766Z,99959.56
2022-08-04T22:33:08.685Z,99953.88
2022-08-04T22:35:48.801Z,99970.28
2022-08-04T22:38:24.514Z,99953.97
2022-08-04T22:40:59.609Z,99965.38
2022-08-04T22:43:33.743Z,99966.81
2022-08-04T22:46:03.936Z,99963.41
2022-08-04T22:48:33.662Z,99952.69
2022-08-04T22:51:02.772Z,99963.28
2022-08-04T22:53:31.632Z,99971.50
2022-08-04T22:56:09.890Z,99969.28
2022-08-04T22:58:44.827Z,99972.47
2022-08-04T23:01:15.074Z,99961.88
2022-08-04T23:03:55.031Z,99968.47
2022-08-04T23:06:25.236Z,99976.50
2022-08-04T23:08:53.823Z,99983.16
2022-08-04T23:11:22.933Z,99975.81
2022-08-04T23:13:50.779Z,99971.72
2022-08-04T23:16:19.013Z,99975.41
2022-08-04T23:18:49.062Z,99975.47
2022-08-04T23:21:24.716Z,99973.56
2022-08-04T23:24:01.050Z,99981.25
2022-08-04T23:26:32.528Z,99990.22
2022-08-04T23:29:03.571Z,99997.50
2022-08-04T23:31:40.993Z,100004.25
2022-08-04T23:34:16.782Z,100004.75
2022-08-04T23:36:47.508Z,100003.13
2022-08-04T23:39:15.689Z,100011.22
2022-08-04T23:41:53.888Z,100012.19
2022-08-04T23:44:26.837Z,100014.22
2022-08-04T23:47:01.898Z,100010.94
2022-08-04T23:49:44.229Z,100006.84
2022-08-04T23:52:28.193Z,100020.84
2022-08-04T23:54:59.598Z,100015.78
2022-08-04T23:57:31.623Z,100027.22
